Time;durP1;ratioP1;P1;durP2;ratioP2;P2;SDS_P1;SDS_P2;PMS_P1;PMS_P2;Temp;Humidity;BMP_temperature;BMP_pressure;BME280_temperature;BME280_humidity;BME280_pressure;Samples;Min_cycle;Max_cycle;Signal;HPM_P1;HPM_P2
2023/03/07 00:01:43;;;;;;;4.35;2.13;;;;;;;;;;5086043;28;20031;-83
2023/03/07 00:04:08;;;;;;;4.68;2.05;;;;;;;;;;5089121;28;20470;-83
2023/03/07 00:06:34;;;;;;;13.25;8.45;;;;;;;;;;5088583;28;20047;-82
2023/03/07 00:09:00;;;;;;;5.90;2.92;;;;;;;;;;5088892;28;20027;-85
2023/03/07 00:11:27;;;;;;;7.22;2.22;;;;;;;;;;5084232;28;20077;-85
2023/03/07 00:13:54;;;;;;;3.13;2.17;;;;;;;;;;5088304;28;20020;-86
2023/03/07 00:16:22;;;;;;;4.25;1.65;;;;;;;;;;5088533;28;20020;-87
2023/03/07 00:18:49;;;;;;;2.63;1.77;;;;;;;;;;5089675;28;20565;-84
2023/03/07 00:21:18;;;;;;;3.88;2.08;;;;;;;;;;5085306;28;20023;-85
2023/03/07 00:23:44;;;;;;;5.75;1.80;;;;;;;;;;5094233;28;20050;-85
2023/03/07 00:26:16;;;;;;;1.70;1.48;;;;;;;;;;5084744;28;20024;-88
2023/03/07 00:28:41;;;;;;;4.30;2.40;;;;;;;;;;5088377;28;20023;-84
2023/03/07 00:31:09;;;;;;;5.43;2.33;;;;;;;;;;5086540;28;20032;-87
2023/03/07 00:33:35;;;;;;;6.22;2.17;;;;;;;;;;5083204;28;20049;-87
2023/03/07 00:36:06;;;;;;;1.25;1.00;;;;;;;;;;5108852;28;20506;-88
2023/03/07 00:38:33;;;;;;;3.47;1.67;;;;;;;;;;5090963;28;20104;-85
2023/03/07 00:41:04;;;;;;;3.17;1.48;;;;;;;;;;5084702;28;20433;-84
2023/03/07 00:43:30;;;;;;;1.67;1.02;;;;;;;;;;5080768;28;20028;-85
2023/03/07 00:45:56;;;;;;;1.65;1.15;;;;;;;;;;5083593;28;20050;-85
2023/03/07 00:48:22;;;;;;;2.08;1.17;;;;;;;;;;5084814;28;20098;-86
2023/03/07 00:50:48;;;;;;;1.50;0.93;;;;;;;;;;5085880;28;20024;-85
2023/03/07 00:53:14;;;;;;;1.85;1.55;;;;;;;;;;5087923;28;20031;-84
2023/03/07 00:55:39;;;;;;;1.85;0.98;;;;;;;;;;5086763;28;20032;-89
2023/03/07 00:58:05;;;;;;;2.35;1.45;;;;;;;;;;5089086;28;20027;-87
2023/03/07 01:00:30;;;;;;;2.20;0.85;;;;;;;;;;5081195;28;20047;-87
2023/03/07 01:02:57;;;;;;;1.58;1.02;;;;;;;;;;5085878;28;20551;-86
2023/03/07 01:05:22;;;;;;;1.95;1.15;;;;;;;;;;5082294;28;20016;-87
2023/03/07 01:07:48;;;;;;;2.00;0.90;;;;;;;;;;5080890;28;20020;-86
2023/03/07 01:10:14;;;;;;;2.92;1.90;;;;;;;;;;5082230;28;20023;-87
2023/03/07 01:12:39;;;;;;;3.45;1.83;;;;;;;;;;5086197;28;20541;-89
2023/03/07 01:15:05;;;;;;;3.75;2.33;;;;;;;;;;5083031;28;20055;-87
2023/03/07 01:17:32;;;;;;;6.13;2.22;;;;;;;;;;5109579;28;20092;-86
2023/03/07 01:19:57;;;;;;;5.15;2.65;;;;;;;;;;5085321;28;20099;-88
2023/03/07 01:22:23;;;;;;;3.80;2.22;;;;;;;;;;5084105;28;20047;-86
2023/03/07 01:24:48;;;;;;;3.25;2.30;;;;;;;;;;5087519;28;20066;-86
2023/03/07 01:27:14;;;;;;;3.33;1.98;;;;;;;;;;5086359;28;20051;-87
2023/03/07 01:29:39;;;;;;;2.92;1.75;;;;;;;;;;5083998;28;20019;-87
2023/03/07 01:32:05;;;;;;;1.75;1.65;;;;;;;;;;5088324;28;20499;-89
2023/03/07 01:34:30;;;;;;;3.90;2.47;;;;;;;;;;5082385;28;20414;-91
2023/03/07 01:36:55;;;;;;;4.25;2.50;;;;;;;;;;5089292;28;20157;-88
2023/03/07 01:39:21;;;;;;;5.03;2.53;;;;;;;;;;5085738;28;20028;-89
2023/03/07 01:41:47;;;;;;;4.55;2.58;;;;;;;;;;5089393;28;20028;-87
2023/03/07 01:44:26;;;;;;;2.10;1.65;;;;;;;;;;5088561;28;20689;-88
2023/03/07 01:46:54;;;;;;;6.10;2.70;;;;;;;;;;5086104;28;20070;-85
2023/03/07 01:49:39;;;;;;;9.50;2.70;;;;;;;;;;5086964;28;20498;-86
2023/03/07 01:52:13;;;;;;;2.15;1.38;;;;;;;;;;5082401;28;20021;-84
2023/03/07 01:54:47;;;;;;;4.32;2.55;;;;;;;;;;5087335;28;20032;-85
2023/03/07 01:57:15;;;;;;;2.53;1.65;;;;;;;;;;5082811;28;20077;-86
2023/03/07 01:59:44;;;;;;;6.15;2.08;;;;;;;;;;5080016;28;20023;-87
2023/03/07 02:02:15;;;;;;;3.45;1.80;;;;;;;;;;5088515;28;20043;-86
2023/03/07 02:05:00;;;;;;;1.85;1.70;;;;;;;;;;5090262;28;20434;-87
2023/03/07 02:07:30;;;;;;;4.35;2.55;;;;;;;;;;5079258;28;20028;-87
2023/03/07 02:09:56;;;;;;;;;;;;;;;;;;5085385;28;20032;-86
2023/03/07 02:12:21;;;;;;;2.03;1.48;;;;;;;;;;5084414;28;19913;-87
2023/03/07 02:14:48;;;;;;;6.90;1.48;;;;;;;;;;5085078;28;20383;-88
2023/03/07 02:17:13;;;;;;;4.40;2.55;;;;;;;;;;5089940;28;20151;-89
2023/03/07 02:20:08;;;;;;;3.67;2.25;;;;;;;;;;5084313;28;20801;-85
2023/03/07 02:22:33;;;;;;;14.77;3.00;;;;;;;;;;5073067;28;20469;-88
2023/03/07 02:25:19;;;;;;;4.60;2.47;;;;;;;;;;5080966;28;20114;-86
2023/03/07 02:27:45;;;;;;;3.50;2.38;;;;;;;;;;5087181;28;20056;-84
2023/03/07 02:30:11;;;;;;;3.65;2.55;;;;;;;;;;5084434;28;20534;-85
2023/03/07 02:32:36;;;;;;;9.13;2.40;;;;;;;;;;5083441;28;20071;-85
2023/03/07 02:35:13;;;;;;;6.90;2.42;;;;;;;;;;5083717;28;20062;-86
2023/03/07 02:37:40;;;;;;;1.80;1.45;;;;;;;;;;5085496;28;20020;-85
2023/03/07 02:40:11;;;;;;;3.35;2.17;;;;;;;;;;5085000;28;20525;-86
2023/03/07 02:42:39;;;;;;;4.18;2.17;;;;;;;;;;5082371;28;20059;-86
2023/03/07 02:45:11;;;;;;;5.20;2.08;;;;;;;;;;5085653;28;20028;-87
2023/03/07 02:47:37;;;;;;;7.90;2.25;;;;;;;;;;5084862;28;20040;-86
2023/03/07 02:50:04;;;;;;;3.75;1.27;;;;;;;;;;5088019;28;20032;-88
2023/03/07 02:52:29;;;;;;;5.03;2.22;;;;;;;;;;5083653;28;20028;-84
2023/03/07 02:54:55;;;;;;;1.52;1.40;;;;;;;;;;5080982;28;20028;-82
2023/03/07 02:57:21;;;;;;;3.58;1.98;;;;;;;;;;5083938;28;20402;-83
2023/03/07 02:59:46;;;;;;;3.08;2.13;;;;;;;;;;5082979;28;20040;-82
2023/03/07 03:02:13;;;;;;;1.75;1.10;;;;;;;;;;5083275;28;20029;-90
2023/03/07 03:04:38;;;;;;;5.15;2.25;;;;;;;;;;5084218;28;20082;-88
2023/03/07 03:07:04;;;;;;;4.25;2.15;;;;;;;;;;5109749;28;20028;-87
2023/03/07 03:09:30;;;;;;;5.10;1.55;;;;;;;;;;5078965;28;20028;-85
2023/03/07 03:11:55;;;;;;;4.80;1.70;;;;;;;;;;5089456;28;20110;-83
2023/03/07 03:14:21;;;;;;;2.55;1.73;;;;;;;;;;5091712;28;20103;-83
2023/03/07 03:16:46;;;;;;;3.70;2.20;;;;;;;;;;5088168;28;20862;-83
2023/03/07 03:19:11;;;;;;;2.28;1.30;;;;;;;;;;5085101;28;20021;-83
2023/03/07 03:21:37;;;;;;;2.97;1.95;;;;;;;;;;5090538;28;20593;-82
2023/03/07 03:24:06;;;;;;;1.25;0.80;;;;;;;;;;5080650;28;20025;-82
2023/03/07 03:26:33;;;;;;;2.90;1.98;;;;;;;;;;5087545;28;20033;-83
2023/03/07 03:28:58;;;;;;;1.55;1.45;;;;;;;;;;5081218;28;20024;-81
2023/03/07 03:31:24;;;;;;;2.70;2.03;;;;;;;;;;5087599;28;20488;-84
2023/03/07 03:33:51;;;;;;;3.67;2.17;;;;;;;;;;5082954;28;20020;-83
2023/03/07 03:36:18;;;;;;;1.65;1.48;;;;;;;;;;5082392;28;20502;-83
2023/03/07 03:38:43;;;;;;;1.48;1.30;;;;;;;;;;5082752;28;20486;-85
2023/03/07 03:41:14;;;;;;;2.63;1.42;;;;;;;;;;5088280;28;20028;-83
2023/03/07 03:43:40;;;;;;;5.28;2.63;;;;;;;;;;5083871;28;20024;-84
2023/03/07 03:46:06;;;;;;;6.25;1.88;;;;;;;;;;5085706;28;20341;-83
2023/03/07 03:48:31;;;;;;;2.38;1.70;;;;;;;;;;5085016;28;20021;-84
2023/03/07 03:51:26;;;;;;;1.35;1.00;;;;;;;;;;5087111;28;20027;-84
2023/03/07 03:53:52;;;;;;;2.40;0.88;;;;;;;;;;5073004;28;20032;-85
2023/03/07 03:56:20;;;;;;;1.30;1.10;;;;;;;;;;5110518;28;20054;-83
2023/03/07 03:58:51;;;;;;;2.33;1.45;;;;;;;;;;5084950;28;20044;-86
2023/03/07 04:01:19;;;;;;;2.80;1.88;;;;;;;;;;5084213;28;20170;-86
2023/03/07 04:03:46;;;;;;;2.20;1.75;;;;;;;;;;5084027;28;20027;-84
2023/03/07 04:06:15;;;;;;;2.38;0.82;;;;;;;;;;5085778;28;20106;-84
2023/03/07 04:08:41;;;;;;;3.57;2.20;;;;;;;;;;5088571;28;20044;-87
2023/03/07 04:11:07;;;;;;;3.70;1.80;;;;;;;;;;5089425;28;20027;-85
2023/03/07 04:13:34;;;;;;;3.83;2.13;;;;;;;;;;5087763;28;20046;-87
2023/03/07 04:16:02;;;;;;;1.73;1.17;;;;;;;;;;5110559;28;20099;-87
2023/03/07 04:18:28;;;;;;;1.73;1.60;;;;;;;;;;5085937;28;20020;-87
2023/03/07 04:20:54;;;;;;;4.80;2.30;;;;;;;;;;5083219;28;20070;-83
2023/03/07 04:23:21;;;;;;;5.32;1.95;;;;;;;;;;5089218;28;20479;-84
2023/03/07 04:25:54;;;;;;;4.80;2.28;;;;;;;;;;5082155;28;20055;-87
2023/03/07 04:28:20;;;;;;;2.28;2.08;;;;;;;;;;5085526;28;20032;-86
2023/03/07 04:30:48;;;;;;;3.72;2.38;;;;;;;;;;5088018;28;20032;-85
2023/03/07 04:33:14;;;;;;;2.70;2.00;;;;;;;;;;5085244;28;20045;-85
2023/03/07 04:35:39;;;;;;;2.85;1.52;;;;;;;;;;5087048;28;20020;-85
2023/03/07 04:38:06;;;;;;;5.80;2.15;;;;;;;;;;5083640;28;20033;-86
2023/03/07 04:40:32;;;;;;;3.88;2.33;;;;;;;;;;5082313;28;20031;-85
2023/03/07 04:42:57;;;;;;;3.75;2.10;;;;;;;;;;5089448;28;20028;-85
2023/03/07 04:45:22;;;;;;;3.30;2.15;;;;;;;;;;5087427;28;20468;-87
2023/03/07 04:47:48;;;;;;;3.13;1.80;;;;;;;;;;5084035;28;20024;-88
2023/03/07 04:50:16;;;;;;;7.22;2.75;;;;;;;;;;5091331;28;20112;-86
2023/03/07 04:52:41;;;;;;;4.97;3.30;;;;;;;;;;5086690;28;20054;-86
2023/03/07 04:55:07;;;;;;;4.78;2.83;;;;;;;;;;5088115;28;20028;-85
2023/03/07 04:57:33;;;;;;;8.27;3.65;;;;;;;;;;5089088;28;20380;-84
2023/03/07 04:59:58;;;;;;;8.52;3.63;;;;;;;;;;5082762;28;20024;-86
2023/03/07 05:02:25;;;;;;;8.07;2.20;;;;;;;;;;5086099;28;20032;-87
2023/03/07 05:04:51;;;;;;;4.38;2.78;;;;;;;;;;5090573;28;20028;-86
2023/03/07 05:07:16;;;;;;;4.82;3.22;;;;;;;;;;5089145;28;20047;-84
2023/03/07 05:09:42;;;;;;;3.55;2.45;;;;;;;;;;5089672;28;20020;-84
2023/03/07 05:12:07;;;;;;;6.03;2.45;;;;;;;;;;5080411;28;20446;-86
2023/03/07 05:14:33;;;;;;;2.35;1.85;;;;;;;;;;5085081;28;20032;-85
2023/03/07 05:16:58;;;;;;;5.05;2.22;;;;;;;;;;5085865;28;20027;-86
2023/03/07 05:19:24;;;;;;;5.20;3.10;;;;;;;;;;5085128;28;20371;-86
2023/03/07 05:21:49;;;;;;;3.67;2.75;;;;;;;;;;5085310;28;20534;-86
2023/03/07 05:24:14;;;;;;;7.38;2.65;;;;;;;;;;5080577;28;20074;-85
2023/03/07 05:26:40;;;;;;;13.93;1.65;;;;;;;;;;5083917;28;20495;-82
2023/03/07 05:29:06;;;;;;;2.83;2.22;;;;;;;;;;5089512;28;20064;-83
2023/03/07 05:31:32;;;;;;;7.35;3.10;;;;;;;;;;5084891;28;20241;-87
2023/03/07 05:33:57;;;;;;;4.65;2.70;;;;;;;;;;5083003;28;20036;-84
2023/03/07 05:36:23;;;;;;;2.53;2.30;;;;;;;;;;5079358;28;20495;-85
2023/03/07 05:38:49;;;;;;;5.25;2.60;;;;;;;;;;5084798;28;20078;-85
2023/03/07 05:41:14;;;;;;;4.90;1.65;;;;;;;;;;5083093;28;20020;-85
2023/03/07 05:43:39;;;;;;;6.22;2.30;;;;;;;;;;5103978;28;20494;-82
2023/03/07 05:46:05;;;;;;;3.03;2.47;;;;;;;;;;5106517;28;20111;-85
2023/03/07 05:48:30;;;;;;;4.30;3.45;;;;;;;;;;5082221;28;20077;-86
2023/03/07 05:51:00;;;;;;;4.80;2.75;;;;;;;;;;5080240;28;20239;-82
2023/03/07 05:53:25;;;;;;;6.25;2.92;;;;;;;;;;5081703;28;20047;-85
2023/03/07 05:55:50;;;;;;;3.58;2.63;;;;;;;;;;5077854;28;20145;-82
2023/03/07 05:58:16;;;;;;;2.45;2.10;;;;;;;;;;5083682;28;20027;-81
2023/03/07 06:00:41;;;;;;;3.70;2.35;;;;;;;;;;5085947;28;20052;-80
2023/03/07 06:03:07;;;;;;;5.72;2.95;;;;;;;;;;5076994;28;20505;-82
2023/03/07 06:05:32;;;;;;;8.25;3.35;;;;;;;;;;5082568;28;20030;-81
2023/03/07 06:07:58;;;;;;;4.57;2.28;;;;;;;;;;5085735;28;20024;-82
2023/03/07 06:10:23;;;;;;;12.57;3.95;;;;;;;;;;5083710;28;20467;-81
2023/03/07 06:12:53;;;;;;;6.90;3.65;;;;;;;;;;5082635;28;20028;-81
2023/03/07 06:15:19;;;;;;;4.47;2.42;;;;;;;;;;5103377;28;20051;-82
2023/03/07 06:17:45;;;;;;;6.18;4.35;;;;;;;;;;5082483;28;20479;-82
2023/03/07 06:20:11;;;;;;;2.47;1.67;;;;;;;;;;5082321;28;20115;-83
2023/03/07 06:22:37;;;;;;;4.70;2.83;;;;;;;;;;5087574;28;20024;-80
2023/03/07 06:25:04;;;;;;;4.05;2.97;;;;;;;;;;5086242;28;20050;-81
2023/03/07 06:27:36;;;;;;;7.28;2.30;;;;;;;;;;5080019;28;20361;-83
2023/03/07 06:30:04;;;;;;;5.03;3.08;;;;;;;;;;5080378;28;20039;-82
2023/03/07 06:32:30;;;;;;;4.45;3.33;;;;;;;;;;5083131;28;20385;-84
2023/03/07 06:34:56;;;;;;;8.95;2.72;;;;;;;;;;5080976;28;20024;-82
2023/03/07 06:37:21;;;;;;;9.35;2.35;;;;;;;;;;5075626;28;20123;-83
2023/03/07 06:39:47;;;;;;;6.13;3.85;;;;;;;;;;5087429;28;20107;-81
2023/03/07 06:42:12;;;;;;;5.28;3.80;;;;;;;;;;5088237;28;20027;-85
2023/03/07 06:44:38;;;;;;;6.35;3.90;;;;;;;;;;5085673;28;20024;-82
2023/03/07 06:47:03;;;;;;;5.40;3.53;;;;;;;;;;5084381;28;20036;-82
2023/03/07 06:49:29;;;;;;;8.52;2.97;;;;;;;;;;5085135;28;20078;-83
2023/03/07 06:51:54;;;;;;;4.55;2.42;;;;;;;;;;5085339;28;20024;-83
2023/03/07 06:54:20;;;;;;;7.05;4.38;;;;;;;;;;5084532;28;20028;-83
2023/03/07 06:56:45;;;;;;;3.45;2.33;;;;;;;;;;5087943;28;20036;-82
2023/03/07 06:59:11;;;;;;;9.50;3.40;;;;;;;;;;5086032;28;20028;-84
2023/03/07 07:01:37;;;;;;;3.90;2.28;;;;;;;;;;5078861;28;20025;-82
2023/03/07 07:04:03;;;;;;;3.42;3.03;;;;;;;;;;5087258;28;20035;-82
2023/03/07 07:06:29;;;;;;;5.80;3.17;;;;;;;;;;5083120;28;20480;-84
2023/03/07 07:08:55;;;;;;;4.45;2.22;;;;;;;;;;5085762;28;20016;-83
2023/03/07 07:11:21;;;;;;;5.68;2.53;;;;;;;;;;5082956;28;20033;-83
2023/03/07 07:13:47;;;;;;;5.03;3.25;;;;;;;;;;5083682;28;20036;-81
2023/03/07 07:16:18;;;;;;;4.15;2.63;;;;;;;;;;5086183;28;20551;-82
2023/03/07 07:18:44;;;;;;;4.68;2.63;;;;;;;;;;5085031;28;20020;-81
2023/03/07 07:21:10;;;;;;;4.63;2.53;;;;;;;;;;5084416;28;20142;-83
2023/03/07 07:23:35;;;;;;;3.53;1.67;;;;;;;;;;5083968;28;20115;-89
2023/03/07 07:26:01;;;;;;;12.07;2.58;;;;;;;;;;5086376;28;20031;-82
2023/03/07 07:28:27;;;;;;;2.42;1.88;;;;;;;;;;5083131;28;20022;-82
2023/03/07 07:30:52;;;;;;;3.20;2.17;;;;;;;;;;5089264;28;20039;-82
2023/03/07 07:33:18;;;;;;;8.27;3.28;;;;;;;;;;5090668;28;20071;-81
2023/03/07 07:35:44;;;;;;;5.57;3.65;;;;;;;;;;5092290;28;20379;-80
2023/03/07 07:38:09;;;;;;;9.18;5.05;;;;;;;;;;5082645;28;20020;-82
2023/03/07 07:40:35;;;;;;;9.35;5.38;;;;;;;;;;5087811;28;20028;-79
2023/03/07 07:43:00;;;;;;;5.72;3.13;;;;;;;;;;5088183;28;20380;-81
2023/03/07 07:45:25;;;;;;;3.92;2.13;;;;;;;;;;5078557;28;20028;-80
2023/03/07 07:47:51;;;;;;;6.38;2.95;;;;;;;;;;5080903;28;20062;-85
2023/03/07 07:50:18;;;;;;;3.90;2.85;;;;;;;;;;5083161;28;20031;-82
2023/03/07 07:52:44;;;;;;;11.45;7.70;;;;;;;;;;5085845;28;20407;-80
2023/03/07 07:55:12;;;;;;;9.30;5.68;;;;;;;;;;5086941;28;20020;-82
2023/03/07 07:57:37;;;;;;;10.63;4.95;;;;;;;;;;5083374;28;20473;-82
2023/03/07 08:00:04;;;;;;;10.45;3.63;;;;;;;;;;5085353;28;20032;-83
2023/03/07 08:02:29;;;;;;;2.92;2.28;;;;;;;;;;5086488;28;20043;-81
2023/03/07 08:04:55;;;;;;;7.35;3.45;;;;;;;;;;5082055;28;20020;-82
2023/03/07 08:07:21;;;;;;;7.85;3.85;;;;;;;;;;5082641;28;20036;-82
2023/03/07 08:09:47;;;;;;;5.45;1.92;;;;;;;;;;5088225;28;20020;-82
2023/03/07 08:12:12;;;;;;;4.60;2.15;;;;;;;;;;5080902;28;20040;-82
2023/03/07 08:14:38;;;;;;;5.40;2.90;;;;;;;;;;5086675;28;20024;-83
2023/03/07 08:17:04;;;;;;;3.63;2.33;;;;;;;;;;5084901;28;20032;-82
2023/03/07 08:19:29;;;;;;;7.35;3.20;;;;;;;;;;5079838;28;21099;-85
2023/03/07 08:21:55;;;;;;;4.65;2.70;;;;;;;;;;5080143;28;20073;-82
2023/03/07 08:24:21;;;;;;;7.90;2.25;;;;;;;;;;5085930;28;20392;-84
2023/03/07 08:26:47;;;;;;;6.57;3.03;;;;;;;;;;5080316;28;20370;-85
2023/03/07 08:29:12;;;;;;;8.20;4.43;;;;;;;;;;5106957;28;20077;-82
2023/03/07 08:31:38;;;;;;;11.02;5.63;;;;;;;;;;5084277;28;20517;-83
2023/03/07 08:34:03;;;;;;;8.15;3.72;;;;;;;;;;5088006;28;20073;-83
2023/03/07 08:36:29;;;;;;;2.13;1.38;;;;;;;;;;5081916;28;20024;-83
2023/03/07 08:38:55;;;;;;;6.00;2.85;;;;;;;;;;5082813;28;20104;-85
2023/03/07 08:41:21;;;;;;;10.68;3.00;;;;;;;;;;5084206;28;20107;-83
2023/03/07 08:43:46;;;;;;;7.28;2.85;;;;;;;;;;5082163;28;20482;-85
2023/03/07 08:46:12;;;;;;;5.38;2.75;;;;;;;;;;5088800;28;20024;-84
2023/03/07 08:48:37;;;;;;;5.90;2.55;;;;;;;;;;5080446;28;20261;-84
2023/03/07 08:51:09;;;;;;;4.47;2.78;;;;;;;;;;5088586;28;20031;-83
2023/03/07 08:53:35;;;;;;;3.50;1.98;;;;;;;;;;5079271;28;20586;-84
2023/03/07 08:56:08;;;;;;;4.85;1.85;;;;;;;;;;5083103;28;20487;-84
2023/03/07 08:58:34;;;;;;;3.45;2.30;;;;;;;;;;5078731;28;20020;-86
2023/03/07 09:01:00;;;;;;;4.63;2.33;;;;;;;;;;5079914;28;20029;-85
2023/03/07 09:03:25;;;;;;;2.90;1.58;;;;;;;;;;5084433;28;20169;-86
2023/03/07 09:05:51;;;;;;;5.65;1.77;;;;;;;;;;5082500;28;20420;-81
2023/03/07 09:08:16;;;;;;;2.10;1.42;;;;;;;;;;5084361;28;20427;-83
2023/03/07 09:10:42;;;;;;;2.15;1.50;;;;;;;;;;5081351;28;20052;-83
2023/03/07 09:13:07;;;;;;;3.88;1.10;;;;;;;;;;5082763;28;20061;-85
2023/03/07 09:15:32;;;;;;;4.25;1.95;;;;;;;;;;5085963;28;20070;-82
2023/03/07 09:17:58;;;;;;;4.80;2.38;;;;;;;;;;5079979;28;20051;-83
2023/03/07 09:20:23;;;;;;;4.88;2.40;;;;;;;;;;5085091;28;20059;-84
2023/03/07 09:22:50;;;;;;;4.40;2.53;;;;;;;;;;5086158;28;20437;-81
2023/03/07 09:25:16;;;;;;;2.05;1.70;;;;;;;;;;5083527;28;20020;-83
2023/03/07 09:27:44;;;;;;;7.40;2.25;;;;;;;;;;5082090;28;20490;-83
2023/03/07 09:30:11;;;;;;;5.35;2.15;;;;;;;;;;5080054;28;20035;-83
2023/03/07 09:32:36;;;;;;;3.05;2.10;;;;;;;;;;5087749;28;20403;-84
2023/03/07 09:35:02;;;;;;;4.22;1.55;;;;;;;;;;5085456;28;20017;-86
2023/03/07 09:37:27;;;;;;;3.58;1.60;;;;;;;;;;5083528;28;20069;-83
2023/03/07 09:39:52;;;;;;;6.85;3.75;;;;;;;;;;5085556;28;20032;-84
2023/03/07 09:42:40;;;;;;;4.70;2.42;;;;;;;;;;5079107;28;20039;-83
2023/03/07 09:45:08;;;;;;;3.08;1.83;;;;;;;;;;5083589;28;20532;-81
2023/03/07 09:48:08;;;;;;;2.10;1.65;;;;;;;;;;5088221;28;20060;-81
2023/03/07 09:50:56;;;;;;;3.20;1.38;;;;;;;;;;5089036;28;20119;-85
2023/03/07 09:53:31;;;;;;;3.63;1.75;;;;;;;;;;5083732;28;20024;-84
2023/03/07 09:56:00;;;;;;;2.60;1.30;;;;;;;;;;5080027;28;20119;-83
2023/03/07 09:58:26;;;;;;;7.05;2.03;;;;;;;;;;5079229;28;20062;-82
2023/03/07 10:00:57;;;;;;;2.15;1.35;;;;;;;;;;5103281;28;20032;-84
2023/03/07 10:03:48;;;;;;;3.88;1.88;;;;;;;;;;5082557;28;20107;-83
2023/03/07 10:06:24;;;;;;;1.50;1.23;;;;;;;;;;5084590;28;20024;-85
2023/03/07 10:08:50;;;;;;;4.82;1.73;;;;;;;;;;5077499;28;20020;-81
2023/03/07 10:11:37;;;;;;;1.67;1.08;;;;;;;;;;5085765;28;20027;-81
2023/03/07 10:14:28;;;;;;;1.65;1.27;;;;;;;;;;5087628;28;20504;-83
2023/03/07 10:16:53;;;;;;;3.85;2.10;;;;;;;;;;5109207;28;20052;-83
2023/03/07 10:19:24;;;;;;;2.05;0.98;;;;;;;;;;5089095;28;20067;-83
2023/03/07 10:22:04;;;;;;;2.03;1.30;;;;;;;;;;5083195;28;20085;-81
2023/03/07 10:24:29;;;;;;;2.40;1.67;;;;;;;;;;5090093;28;20107;-80
2023/03/07 10:27:05;;;;;;;1.17;1.08;;;;;;;;;;5084169;28;20110;-79
2023/03/07 10:29:47;;;;;;;2.15;1.60;;;;;;;;;;5079351;28;20024;-82
2023/03/07 10:32:12;;;;;;;1.10;0.98;;;;;;;;;;5083220;28;20572;-82
2023/03/07 10:34:39;;;;;;;1.02;0.85;;;;;;;;;;5088704;28;20020;-81
2023/03/07 10:37:17;;;;;;;1.35;0.65;;;;;;;;;;5084976;28;20077;-83
2023/03/07 10:39:55;;;;;;;1.20;0.93;;;;;;;;;;5084319;28;20028;-81
2023/03/07 10:42:23;;;;;;;1.55;0.55;;;;;;;;;;5089230;28;20059;-82
2023/03/07 10:44:50;;;;;;;1.52;0.82;;;;;;;;;;5088064;28;20035;-83
2023/03/07 10:47:26;;;;;;;0.85;0.75;;;;;;;;;;5087747;28;20401;-84
2023/03/07 10:49:59;;;;;;;1.13;0.70;;;;;;;;;;5086264;28;20024;-83
2023/03/07 10:52:54;;;;;;;0.70;0.65;;;;;;;;;;5086578;28;20520;-81
2023/03/07 10:55:34;;;;;;;1.15;0.70;;;;;;;;;;5081153;28;20050;-84
2023/03/07 10:58:15;;;;;;;1.05;0.80;;;;;;;;;;5083383;28;20032;-86
2023/03/07 11:00:43;;;;;;;0.40;0.40;;;;;;;;;;5086195;28;20529;-82
2023/03/07 11:03:26;;;;;;;1.50;1.02;;;;;;;;;;5083995;28;20194;-82
2023/03/07 11:05:52;;;;;;;0.90;0.70;;;;;;;;;;5085517;28;20505;-81
2023/03/07 11:08:30;;;;;;;0.30;0.30;;;;;;;;;;5088520;28;20055;-85
2023/03/07 11:10:57;;;;;;;1.20;0.73;;;;;;;;;;5089114;28;20467;-83
2023/03/07 11:13:23;;;;;;;0.52;0.52;;;;;;;;;;5088998;28;20107;-83
2023/03/07 11:15:49;;;;;;;1.63;1.13;;;;;;;;;;5083037;28;20059;-82
2023/03/07 11:18:25;;;;;;;1.08;0.52;;;;;;;;;;5081304;28;20056;-81
2023/03/07 11:20:50;;;;;;;0.80;0.75;;;;;;;;;;5080066;28;20070;-81
2023/03/07 11:23:27;;;;;;;2.38;1.17;;;;;;;;;;5084698;28;20479;-83
2023/03/07 11:25:55;;;;;;;0.35;0.30;;;;;;;;;;5084789;28;20033;-82
2023/03/07 11:28:39;;;;;;;1.25;0.85;;;;;;;;;;5085648;28;20056;-83
2023/03/07 11:31:27;;;;;;;1.55;0.82;;;;;;;;;;5084385;28;20053;-85
2023/03/07 11:33:59;;;;;;;1.05;0.68;;;;;;;;;;5081566;28;20514;-85
2023/03/07 11:36:33;;;;;;;1.15;0.80;;;;;;;;;;5100770;28;20032;-85
2023/03/07 11:39:23;;;;;;;4.07;1.50;;;;;;;;;;5084568;28;20413;-82
2023/03/07 11:41:55;;;;;;;1.58;0.82;;;;;;;;;;5090661;28;20402;-84
2023/03/07 11:44:33;;;;;;;1.38;0.88;;;;;;;;;;5084082;28;20047;-81
2023/03/07 11:47:29;;;;;;;1.25;0.75;;;;;;;;;;5089568;28;20034;-84
2023/03/07 11:50:21;;;;;;;0.47;0.38;;;;;;;;;;5088312;28;20047;-85
2023/03/07 11:53:36;;;;;;;0.80;0.60;;;;;;;;;;5083841;28;20036;-83
2023/03/07 11:56:14;;;;;;;0.50;0.40;;;;;;;;;;5065525;28;20063;-84
2023/03/07 11:59:05;;;;;;;0.60;0.50;;;;;;;;;;5081459;28;20028;-83
2023/03/07 12:01:46;;;;;;;1.05;0.50;;;;;;;;;;5085647;28;20387;-84
2023/03/07 12:04:39;;;;;;;0.30;0.30;;;;;;;;;;5085140;28;20030;-83
2023/03/07 12:07:24;;;;;;;0.60;0.40;;;;;;;;;;5087940;28;20016;-84
2023/03/07 12:10:25;;;;;;;0.32;0.32;;;;;;;;;;5084093;28;20073;-82
2023/03/07 12:13:14;;;;;;;0.93;0.70;;;;;;;;;;5080156;28;20034;-82
2023/03/07 12:15:50;;;;;;;0.45;0.20;;;;;;;;;;5085944;28;20024;-83
2023/03/07 12:18:40;;;;;;;1.58;1.02;;;;;;;;;;5081743;28;20032;-81
2023/03/07 12:21:08;;;;;;;3.17;0.60;;;;;;;;;;5085338;28;20070;-80
2023/03/07 12:24:12;;;;;;;0.40;0.40;;;;;;;;;;5083539;28;20027;-82
2023/03/07 12:26:59;;;;;;;0.68;0.68;;;;;;;;;;5081452;28;20036;-83
2023/03/07 12:29:37;;;;;;;1.08;0.95;;;;;;;;;;5084158;28;20027;-85
2023/03/07 12:32:09;;;;;;;1.17;0.60;;;;;;;;;;5082900;28;20041;-82
2023/03/07 12:34:43;;;;;;;1.33;0.80;;;;;;;;;;5085281;28;20034;-82
2023/03/07 12:37:15;;;;;;;0.50;0.50;;;;;;;;;;5084613;28;20024;-82
2023/03/07 12:39:40;;;;;;;0.55;0.30;;;;;;;;;;5087220;28;20024;-85
2023/03/07 12:42:33;;;;;;;0.55;0.43;;;;;;;;;;5083649;28;20495;-83
2023/03/07 12:45:06;;;;;;;0.85;0.45;;;;;;;;;;5084297;28;20056;-83
2023/03/07 12:47:43;;;;;;;2.90;0.70;;;;;;;;;;5083391;28;20106;-85
2023/03/07 12:50:18;;;;;;;0.95;0.50;;;;;;;;;;5086801;28;20031;-86
2023/03/07 12:53:25;;;;;;;1.58;0.73;;;;;;;;;;5084685;28;20416;-83
2023/03/07 12:55:56;;;;;;;3.40;0.57;;;;;;;;;;5078946;28;20383;-83
2023/03/07 12:58:36;;;;;;;1.90;0.60;;;;;;;;;;5080611;28;20028;-85
2023/03/07 13:01:06;;;;;;;0.73;0.63;;;;;;;;;;5085516;28;20020;-85
2023/03/07 13:04:03;;;;;;;1.77;0.60;;;;;;;;;;5082880;28;20032;-84
2023/03/07 13:06:30;;;;;;;0.88;0.55;;;;;;;;;;5066660;28;20040;-83
2023/03/07 13:09:01;;;;;;;0.80;0.65;;;;;;;;;;5079893;28;20025;-83
2023/03/07 13:11:33;;;;;;;0.38;0.35;;;;;;;;;;5077807;28;20024;-84
2023/03/07 13:14:03;;;;;;;1.65;0.47;;;;;;;;;;5087218;28;20103;-86
2023/03/07 13:16:32;;;;;;;;;;;;;;;;;;5085139;28;20091;-84
2023/03/07 13:19:35;;;;;;;1.55;0.50;;;;;;;;;;5085202;28;19969;-85
2023/03/07 13:22:01;;;;;;;0.40;0.40;;;;;;;;;;5083934;28;20020;-85
2023/03/07 13:24:40;;;;;;;1.25;0.50;;;;;;;;;;5088101;28;20084;-82
2023/03/07 13:27:32;;;;;;;0.70;0.70;;;;;;;;;;5082229;28;20036;-81
2023/03/07 13:30:01;;;;;;;0.68;0.63;;;;;;;;;;5089507;28;20036;-81
2023/03/07 13:32:51;;;;;;;2.17;0.90;;;;;;;;;;5081559;28;20072;-83
2023/03/07 13:35:37;;;;;;;0.90;0.70;;;;;;;;;;5082102;28;20032;-83
2023/03/07 13:38:40;;;;;;;0.73;0.60;;;;;;;;;;5105684;27;20036;-85
2023/03/07 13:41:08;;;;;;;3.45;0.75;;;;;;;;;;5084707;28;20040;-81
2023/03/07 13:43:56;;;;;;;1.83;0.73;;;;;;;;;;5081627;28;20032;-82
2023/03/07 13:46:44;;;;;;;1.73;0.95;;;;;;;;;;5085457;28;20035;-83
2023/03/07 13:49:09;;;;;;;1.42;0.77;;;;;;;;;;5081119;28;20058;-82
2023/03/07 13:51:35;;;;;;;1.27;0.68;;;;;;;;;;5083502;28;20052;-81
2023/03/07 13:54:09;;;;;;;1.55;0.70;;;;;;;;;;5079022;28;20031;-83
2023/03/07 13:56:39;;;;;;;1.02;0.80;;;;;;;;;;5078921;28;20110;-83
2023/03/07 13:59:20;;;;;;;0.73;0.73;;;;;;;;;;5085624;28;20117;-84
2023/03/07 14:01:56;;;;;;;1.45;0.80;;;;;;;;;;5082899;28;20032;-82
2023/03/07 14:04:31;;;;;;;0.43;0.43;;;;;;;;;;5101110;28;20020;-84
2023/03/07 14:07:11;;;;;;;1.15;0.77;;;;;;;;;;5088144;28;20031;-82
2023/03/07 14:09:46;;;;;;;2.63;0.82;;;;;;;;;;5079441;28;20472;-84
2023/03/07 14:12:37;;;;;;;0.80;0.65;;;;;;;;;;5100693;28;20565;-82
2023/03/07 14:15:21;;;;;;;0.50;0.50;;;;;;;;;;5103255;28;20028;-81
2023/03/07 14:18:13;;;;;;;1.48;0.90;;;;;;;;;;5082937;28;20039;-81
2023/03/07 14:21:08;;;;;;;0.50;0.30;;;;;;;;;;5084052;28;20036;-82
2023/03/07 14:24:11;;;;;;;0.82;0.65;;;;;;;;;;5083217;28;20024;-83
2023/03/07 14:26:42;;;;;;;1.52;0.68;;;;;;;;;;5103338;28;20028;-85
2023/03/07 14:29:21;;;;;;;3.88;0.50;;;;;;;;;;5078264;28;20027;-85
2023/03/07 14:31:55;;;;;;;0.85;0.63;;;;;;;;;;5082493;28;20123;-83
2023/03/07 14:34:21;;;;;;;0.70;0.50;;;;;;;;;;5087053;28;20081;-83
2023/03/07 14:36:52;;;;;;;0.85;0.65;;;;;;;;;;5081915;28;20872;-83
2023/03/07 14:39:19;;;;;;;0.60;0.60;;;;;;;;;;5078455;28;20457;-83
2023/03/07 14:41:53;;;;;;;0.88;0.63;;;;;;;;;;5082903;28;20104;-83
2023/03/07 14:44:56;;;;;;;0.90;0.70;;;;;;;;;;5083459;28;20031;-84
2023/03/07 14:47:33;;;;;;;0.77;0.60;;;;;;;;;;5080777;28;20028;-81
2023/03/07 14:50:15;;;;;;;0.80;0.40;;;;;;;;;;5082497;28;20383;-83
2023/03/07 14:52:42;;;;;;;1.48;0.68;;;;;;;;;;5094148;28;20026;-82
2023/03/07 14:55:16;;;;;;;1.10;0.70;;;;;;;;;;5084313;28;20016;-84
2023/03/07 14:57:45;;;;;;;0.75;0.52;;;;;;;;;;5082641;28;20040;-82
2023/03/07 15:00:19;;;;;;;0.75;0.63;;;;;;;;;;5082955;28;20032;-82
2023/03/07 15:02:50;;;;;;;2.05;0.90;;;;;;;;;;5084640;28;20039;-84
2023/03/07 15:05:21;;;;;;;2.75;0.70;;;;;;;;;;5081303;28;20048;-85